createdAt,value
2022-10-17T00:00:07.776Z,77.01
2022-10-17T00:00:40.013Z,76.58
2022-10-17T00:01:13.178Z,76.68
2022-10-17T00:01:45.163Z,76.60
2022-10-17T00:02:17.095Z,76.30
2022-10-17T00:02:49.042Z,76.58
2022-10-17T00:03:20.891Z,76.92
2022-10-17T00:03:52.805Z,77.21
2022-10-17T00:04:24.723Z,77.50
2022-10-17T00:04:56.618Z,76.99
2022-10-17T00:05:28.796Z,76.77
2022-10-17T00:06:06.004Z,76.61
2022-10-17T00:06:38.148Z,77.24
2022-10-17T00:07:10.085Z,77.03
2022-10-17T00:07:42.029Z,76.92
2022-10-17T00:08:16.603Z,76.37
2022-10-17T00:08:48.485Z,76.42
2022-10-17T00:09:20.401Z,76.56
2022-10-17T00:09:52.292Z,76.80
2022-10-17T00:10:24.539Z,76.74
2022-10-17T00:11:03.552Z,76.69
2022-10-17T00:11:35.641Z,76.50
2022-10-17T00:12:07.761Z,76.49
2022-10-17T00:12:39.619Z,76.65
2022-10-17T00:13:12.092Z,77.09
2022-10-17T00:13:44.780Z,77.14
2022-10-17T00:14:16.717Z,76.75
2022-10-17T00:14:48.594Z,76.46
2022-10-17T00:15:21.721Z,76.56
2022-10-17T00:15:54.051Z,76.37
2022-10-17T00:16:32.553Z,76.63
2022-10-17T00:17:04.456Z,76.64
2022-10-17T00:17:38.374Z,76.33
2022-10-17T00:18:10.269Z,76.02
2022-10-17T00:18:42.127Z,76.24
2022-10-17T00:19:13.976Z,76.25
2022-10-17T00:19:45.943Z,76.40
2022-10-17T00:20:17.966Z,76.53
2022-10-17T00:20:49.874Z,76.75
2022-10-17T00:21:22.642Z,76.50
2022-10-17T00:21:54.464Z,76.36
2022-10-17T00:22:27.564Z,76.25
2022-10-17T00:23:00.592Z,76.42
2022-10-17T00:23:33.914Z,76.72
2022-10-17T00:24:06.059Z,76.90
2022-10-17T00:24:37.938Z,76.60
2022-10-17T00:25:10.332Z,76.92
2022-10-17T00:25:42.357Z,77.18
2022-10-17T00:26:15.582Z,77.54
2022-10-17T00:26:47.485Z,77.63
2022-10-17T00:27:19.596Z,77.50
2022-10-17T00:27:51.480Z,77.55
2022-10-17T00:28:23.694Z,77.09
2022-10-17T00:28:56.118Z,76.86
2022-10-17T00:29:27.997Z,76.98
2022-10-17T00:29:59.847Z,76.90
2022-10-17T00:30:32.865Z,76.80
2022-10-17T00:31:06.685Z,77.14
2022-10-17T00:31:38.552Z,77.58
2022-10-17T00:32:10.411Z,77.16
2022-10-17T00:32:42.526Z,76.96
2022-10-17T00:33:14.376Z,76.84
2022-10-17T00:33:47.155Z,76.84
2022-10-17T00:34:20.526Z,76.94
2022-10-17T00:34:52.337Z,76.67
2022-10-17T00:35:24.184Z,76.72
2022-10-17T00:36:07.623Z,76.57
2022-10-17T00:36:40.088Z,76.23
2022-10-17T00:37:13.008Z,76.14
2022-10-17T00:37:44.841Z,75.98
2022-10-17T00:38:16.736Z,76.13
2022-10-17T00:38:53.403Z,76.08
2022-10-17T00:39:25.390Z,76.36
2022-10-17T00:39:57.256Z,76.70
2022-10-17T00:40:29.102Z,77.17
2022-10-17T00:41:00.952Z,77.00
2022-10-17T00:41:33.702Z,76.73
2022-10-17T00:42:06.363Z,76.52
2022-10-17T00:42:38.489Z,77.49
2022-10-17T00:43:17.830Z,77.60
2022-10-17T00:44:01.607Z,77.51
2022-10-17T00:44:33.385Z,77.08
2022-10-17T00:45:08.505Z,76.70
2022-10-17T00:45:40.480Z,76.70
2022-10-17T00:46:12.370Z,77.18
2022-10-17T00:46:44.995Z,77.44
2022-10-17T00:47:21.100Z,77.07
2022-10-17T00:48:06.533Z,76.96
2022-10-17T00:48:38.519Z,76.58
2022-10-17T00:49:12.627Z,76.61
2022-10-17T00:49:44.662Z,76.99
2022-10-17T00:50:17.137Z,76.71
2022-10-17T00:50:50.080Z,76.28
2022-10-17T00:51:29.610Z,76.50
2022-10-17T00:52:08.494Z,76.91
2022-10-17T00:52:41.112Z,76.79
2022-10-17T00:53:13.637Z,76.77
2022-10-17T00:53:45.849Z,76.49
2022-10-17T00:54:23.218Z,76.55
2022-10-17T00:55:00.089Z,77.00
2022-10-17T00:55:34.810Z,76.95
2022-10-17T00:56:07.455Z,76.89
2022-10-17T00:56:40.529Z,76.80
2022-10-17T00:57:12.892Z,76.67
2022-10-17T00:57:46.302Z,76.56
2022-10-17T00:58:19.039Z,76.32
2022-10-17T00:58:50.968Z,76.33
2022-10-17T00:59:24.811Z,76.17
2022-10-17T00:59:58.343Z,76.51
2022-10-17T01:00:30.906Z,77.02
2022-10-17T01:01:03.727Z,76.92
2022-10-17T01:01:36.126Z,76.87
2022-10-17T01:02:15.448Z,77.05
2022-10-17T01:02:47.574Z,76.62
2022-10-17T01:03:22.049Z,76.91
2022-10-17T01:03:53.921Z,76.61
2022-10-17T01:04:26.247Z,76.63
2022-10-17T01:04:59.567Z,76.32
2022-10-17T01:05:31.520Z,75.65
2022-10-17T01:06:03.574Z,75.30
2022-10-17T01:06:35.436Z,75.56
2022-10-17T01:07:07.456Z,75.74
2022-10-17T01:07:41.783Z,75.59
2022-10-17T01:08:14.154Z,75.92
2022-10-17T01:08:46.372Z,76.57
2022-10-17T01:09:18.597Z,76.23
2022-10-17T01:09:51.049Z,76.33
2022-10-17T01:10:29.866Z,76.84
2022-10-17T01:11:14.139Z,77.28
2022-10-17T01:11:53.622Z,77.09
2022-10-17T01:12:35.178Z,77.05
2022-10-17T01:13:13.632Z,77.03
2022-10-17T01:13:53.367Z,77.66
2022-10-17T01:14:42.802Z,77.70
2022-10-17T01:15:32.981Z,78.03
2022-10-17T01:16:18.728Z,77.68
2022-10-17T01:17:19.508Z,76.81
2022-10-17T01:18:14.819Z,76.74
2022-10-17T01:18:59.699Z,77.48
2022-10-17T01:19:57.929Z,77.75
2022-10-17T01:20:38.768Z,77.62
2022-10-17T01:21:36.677Z,77.02
2022-10-17T01:22:17.497Z,76.72
2022-10-17T01:23:11.055Z,76.02
2022-10-17T01:24:04.611Z,76.12
2022-10-17T01:25:05.093Z,75.99
2022-10-17T01:25:56.184Z,75.86
2022-10-17T01:26:52.477Z,76.54
2022-10-17T01:27:42.777Z,76.56
2022-10-17T01:29:31.841Z,75.96
2022-10-17T01:30:26.264Z,75.63
2022-10-17T01:31:16.008Z,75.44
2022-10-17T01:31:51.235Z,75.41
2022-10-17T01:32:37.260Z,75.17
2022-10-17T01:33:31.309Z,75.03
2022-10-17T01:34:12.833Z,75.68
2022-10-17T01:35:01.616Z,75.91
2022-10-17T01:35:42.312Z,76.51
2022-10-17T01:36:23.163Z,76.23
2022-10-17T01:36:58.155Z,75.95
2022-10-17T01:37:37.916Z,76.15
2022-10-17T01:38:14.690Z,76.04
2022-10-17T01:38:51.689Z,76.20
2022-10-17T01:39:45.635Z,76.04
2022-10-17T01:40:27.842Z,76.13
2022-10-17T01:41:07.695Z,77.01
2022-10-17T01:42:02.287Z,77.65
2022-10-17T01:42:42.429Z,78.30
2022-10-17T01:43:34.819Z,77.78
2022-10-17T01:44:19.678Z,77.00
2022-10-17T01:45:03.862Z,76.95
2022-10-17T01:45:50.712Z,76.89
2022-10-17T01:46:30.206Z,76.72
2022-10-17T01:47:13.612Z,77.07
2022-10-17T01:47:47.870Z,77.16
2022-10-17T01:48:25.751Z,77.75
2022-10-17T01:49:01.791Z,77.65
2022-10-17T01:49:37.566Z,77.64
2022-10-17T01:50:17.038Z,77.52
2022-10-17T01:50:53.715Z,77.25
2022-10-17T01:51:33.345Z,77.23
2022-10-17T01:52:11.684Z,77.18
2022-10-17T01:52:50.759Z,76.71
2022-10-17T01:53:38.728Z,76.32
2022-10-17T01:54:23.785Z,76.19
2022-10-17T01:55:26.284Z,76.39
2022-10-17T01:56:03.078Z,76.54
2022-10-17T01:56:36.584Z,76.88
2022-10-17T01:57:14.115Z,76.72
2022-10-17T01:57:57.861Z,76.47
2022-10-17T01:58:38.340Z,76.20
2022-10-17T01:59:22.425Z,75.53
2022-10-17T01:59:56.588Z,75.36
2022-10-17T02:00:30.056Z,75.38
2022-10-17T02:01:06.319Z,75.68
2022-10-17T02:01:41.563Z,75.83
2022-10-17T02:02:15.135Z,75.97
2022-10-17T02:02:49.987Z,76.21
2022-10-17T02:03:24.355Z,76.21
2022-10-17T02:03:58.018Z,76.29
2022-10-17T02:04:30.092Z,76.40
2022-10-17T02:05:03.918Z,76.17
2022-10-17T02:05:39.978Z,76.32
2022-10-17T02:06:12.163Z,76.04
2022-10-17T02:06:44.149Z,75.79
2022-10-17T02:07:16.365Z,75.71
2022-10-17T02:07:48.224Z,75.89
2022-10-17T02:08:42.002Z,75.89
2022-10-17T02:09:27.228Z,76.25
2022-10-17T02:10:02.717Z,75.72
2022-10-17T02:11:06.861Z,76.04
2022-10-17T02:11:40.943Z,76.17
2022-10-17T02:12:44.044Z,75.94
2022-10-17T02:13:21.908Z,76.69
2022-10-17T02:13:53.725Z,76.82
2022-10-17T02:14:47.184Z,76.42
2022-10-17T02:15:37.659Z,76.36
2022-10-17T02:16:29.422Z,76.42
2022-10-17T02:17:28.266Z,76.30
2022-10-17T02:18:02.964Z,76.33
2022-10-17T02:18:53.230Z,77.04
2022-10-17T02:20:05.337Z,77.03
2022-10-17T02:20:52.151Z,76.55
2022-10-17T02:22:00.355Z,77.05
2022-10-17T02:22:46.286Z,77.59
2022-10-17T02:23:37.009Z,76.61
2022-10-17T02:24:18.026Z,76.33
2022-10-17T02:24:55.041Z,76.23
2022-10-17T02:25:35.003Z,76.67
2022-10-17T02:26:52.427Z,76.64
2022-10-17T02:27:24.244Z,76.17
2022-10-17T02:28:11.855Z,76.79
2022-10-17T02:28:51.699Z,76.78
2022-10-17T02:29:31.318Z,76.71
2022-10-17T02:30:14.182Z,76.44
2022-10-17T02:30:49.673Z,76.32
2022-10-17T02:31:30.436Z,76.31
2022-10-17T02:32:05.335Z,76.69
2022-10-17T02:32:50.325Z,76.36
2022-10-17T02:33:31.815Z,76.20
2022-10-17T02:34:13.242Z,76.33
2022-10-17T02:34:52.098Z,76.26
2022-10-17T02:35:28.371Z,76.71
2022-10-17T02:36:06.248Z,77.07
2022-10-17T02:36:47.774Z,76.61
2022-10-17T02:37:24.707Z,76.49
2022-10-17T02:37:58.348Z,76.41
2022-10-17T02:38:31.823Z,76.63
2022-10-17T02:39:06.144Z,76.48
2022-10-17T02:39:41.118Z,76.34
2022-10-17T02:40:14.836Z,75.86
2022-10-17T02:40:48.393Z,76.06
2022-10-17T02:41:22.958Z,76.49
2022-10-17T02:42:00.220Z,76.94
2022-10-17T02:42:33.151Z,77.32
2022-10-17T02:43:05.469Z,76.84
2022-10-17T02:43:39.108Z,76.94
2022-10-17T02:44:11.748Z,77.16
2022-10-17T02:44:46.923Z,77.81
2022-10-17T02:45:19.630Z,77.68
2022-10-17T02:45:52.698Z,77.29
2022-10-17T02:46:27.380Z,77.44
2022-10-17T02:47:14.642Z,77.34
2022-10-17T02:48:04.499Z,77.20
2022-10-17T02:48:47.308Z,77.61
2022-10-17T02:49:28.180Z,77.09
2022-10-17T02:50:00.148Z,77.35
2022-10-17T02:51:02.082Z,77.17
2022-10-17T02:52:02.030Z,77.23
2022-10-17T02:52:37.020Z,77.23
2022-10-17T02:53:17.608Z,77.11
2022-10-17T02:54:14.839Z,77.38
2022-10-17T02:54:54.691Z,77.24
2022-10-17T02:55:33.484Z,77.47
2022-10-17T02:56:13.306Z,77.82
2022-10-17T02:56:56.585Z,77.72
2022-10-17T02:57:39.471Z,77.69
2022-10-17T02:58:18.978Z,77.32
2022-10-17T02:58:56.312Z,76.89
2022-10-17T02:59:30.830Z,77.18
2022-10-17T03:00:06.784Z,77.24
2022-10-17T03:00:40.206Z,77.42
2022-10-17T03:01:13.758Z,77.23
2022-10-17T03:01:45.952Z,77.46
2022-10-17T03:02:18.349Z,77.76
2022-10-17T03:02:52.771Z,77.95
2022-10-17T03:03:29.135Z,77.76
2022-10-17T03:04:07.768Z,77.59
2022-10-17T03:04:43.866Z,77.50
2022-10-17T03:05:28.891Z,77.35
2022-10-17T03:06:00.884Z,77.36
2022-10-17T03:06:32.804Z,77.92
2022-10-17T03:07:04.836Z,77.61
2022-10-17T03:07:36.702Z,77.69
2022-10-17T03:08:08.579Z,77.78
2022-10-17T03:08:40.469Z,77.62
2022-10-17T03:09:12.602Z,77.23
2022-10-17T03:09:45.755Z,77.20
2022-10-17T03:10:19.415Z,77.29
2022-10-17T03:10:52.557Z,77.35
2022-10-17T03:11:25.598Z,77.30
2022-10-17T03:11:57.499Z,77.04
2022-10-17T03:12:29.547Z,77.16
2022-10-17T03:13:01.483Z,77.19
2022-10-17T03:13:36.234Z,77.42
2022-10-17T03:14:10.976Z,77.45
2022-10-17T03:14:42.885Z,77.64
2022-10-17T03:15:15.132Z,77.63
2022-10-17T03:15:47.902Z,77.32
2022-10-17T03:16:19.818Z,77.23
2022-10-17T03:16:51.767Z,76.96
2022-10-17T03:17:24.431Z,77.15
2022-10-17T03:17:56.346Z,77.05
2022-10-17T03:18:28.524Z,76.82
2022-10-17T03:19:00.877Z,76.70
2022-10-17T03:19:32.866Z,76.99
2022-10-17T03:20:06.463Z,77.07
2022-10-17T03:20:38.367Z,77.09
2022-10-17T03:21:10.554Z,77.25
2022-10-17T03:21:42.535Z,77.06
2022-10-17T03:22:14.398Z,77.11
2022-10-17T03:22:46.850Z,76.95
2022-10-17T03:23:18.692Z,77.34
2022-10-17T03:23:50.614Z,77.18
2022-10-17T03:24:22.862Z,76.70
2022-10-17T03:24:55.630Z,76.60
2022-10-17T03:25:28.173Z,76.56
2022-10-17T03:26:04.473Z,76.61
2022-10-17T03:26:36.845Z,76.85
2022-10-17T03:27:08.772Z,76.68
2022-10-17T03:27:41.862Z,77.01
2022-10-17T03:28:14.107Z,77.03
2022-10-17T03:28:47.630Z,76.91
2022-10-17T03:29:21.632Z,77.27
2022-10-17T03:29:53.615Z,77.65
2022-10-17T03:30:25.834Z,77.94
2022-10-17T03:30:58.358Z,78.05
2022-10-17T03:31:30.277Z,77.48
2022-10-17T03:32:02.707Z,77.03
2022-10-17T03:32:34.775Z,77.63
2022-10-17T03:33:06.582Z,77.35
2022-10-17T03:33:38.619Z,76.98
2022-10-17T03:34:10.482Z,76.98
2022-10-17T03:34:42.436Z,77.19
2022-10-17T03:35:15.129Z,76.92
2022-10-17T03:36:22.895Z,77.66
2022-10-17T03:36:55.198Z,77.82
2022-10-17T03:37:28.366Z,77.71
2022-10-17T03:38:00.641Z,77.82
2022-10-17T03:38:32.941Z,77.60
2022-10-17T03:39:04.966Z,78.15
2022-10-17T03:39:37.076Z,77.83
2022-10-17T03:40:09.458Z,77.38
2022-10-17T03:40:41.399Z,77.09
2022-10-17T03:41:14.557Z,76.92
2022-10-17T03:41:46.959Z,76.75
2022-10-17T03:42:19.617Z,76.85
2022-10-17T03:42:52.043Z,77.10
2022-10-17T03:43:23.967Z,76.75
2022-10-17T03:43:55.807Z,76.79
2022-10-17T03:44:28.201Z,77.06
2022-10-17T03:45:00.114Z,77.12
2022-10-17T03:45:32.633Z,77.44
2022-10-17T03:46:04.951Z,77.56
2022-10-17T03:46:37.252Z,77.55
2022-10-17T03:47:11.930Z,77.43
2022-10-17T03:47:46.069Z,77.12
2022-10-17T03:48:18.944Z,77.32
2022-10-17T03:48:50.955Z,77.73
2022-10-17T03:49:22.805Z,77.68
2022-10-17T03:49:54.737Z,77.69
2022-10-17T03:50:26.730Z,77.93
2022-10-17T03:51:03.489Z,77.93
2022-10-17T03:51:37.556Z,77.63
2022-10-17T03:52:13.981Z,77.17
2022-10-17T03:52:49.593Z,76.88
2022-10-17T03:53:21.850Z,76.63
2022-10-17T03:53:53.933Z,76.87
2022-10-17T03:54:26.765Z,76.97
2022-10-17T03:54:58.826Z,77.69
2022-10-17T03:55:31.415Z,77.92
2022-10-17T03:56:10.229Z,78.04
2022-10-17T03:56:43.885Z,77.76
2022-10-17T03:57:16.341Z,78.21
2022-10-17T03:57:48.658Z,78.32
2022-10-17T03:58:21.115Z,77.75
2022-10-17T03:58:55.368Z,77.56
2022-10-17T03:59:27.425Z,77.16
2022-10-17T03:59:59.958Z,77.29
2022-10-17T04:00:32.453Z,77.11
2022-10-17T04:01:06.466Z,76.87
2022-10-17T04:01:38.357Z,77.17
2022-10-17T04:02:10.303Z,76.94
2022-10-17T04:02:42.452Z,77.35
2022-10-17T04:03:17.305Z,77.82
2022-10-17T04:03:54.324Z,78.44
2022-10-17T04:04:26.383Z,78.44
2022-10-17T04:04:58.247Z,77.73
2022-10-17T04:05:30.176Z,77.00
2022-10-17T04:06:03.398Z,76.99
2022-10-17T04:06:37.398Z,76.94
2022-10-17T04:07:09.522Z,76.99
2022-10-17T04:07:41.945Z,77.02
2022-10-17T04:08:14.574Z,77.54
2022-10-17T04:08:50.378Z,77.72
2022-10-17T04:09:22.693Z,77.76
2022-10-17T04:09:54.963Z,77.91
2022-10-17T04:10:26.994Z,77.97
2022-10-17T04:11:00.363Z,77.80
2022-10-17T04:11:32.338Z,78.36
2022-10-17T04:12:04.834Z,78.12
2022-10-17T04:12:37.794Z,77.76
2022-10-17T04:13:10.343Z,77.51
2022-10-17T04:13:43.161Z,77.26
2022-10-17T04:14:15.065Z,77.29
2022-10-17T04:14:47.154Z,82.52
2022-10-17T04:15:19.374Z,80.21
2022-10-17T04:16:13.951Z,80.80
2022-10-17T04:16:46.310Z,79.82
2022-10-17T04:17:18.919Z,79.18
2022-10-17T04:17:51.024Z,78.39
2022-10-17T04:18:22.978Z,78.55
2022-10-17T04:18:56.685Z,78.39
2022-10-17T04:19:29.322Z,77.75
2022-10-17T04:20:01.340Z,82.68
2022-10-17T04:20:35.512Z,78.75
2022-10-17T04:21:08.205Z,79.07
2022-10-17T04:21:40.425Z,77.69
2022-10-17T04:22:12.409Z,77.83
2022-10-17T04:22:44.584Z,78.00
2022-10-17T04:23:17.942Z,81.73
2022-10-17T04:23:57.929Z,82.84
2022-10-17T04:24:31.653Z,79.90
2022-10-17T04:25:04.457Z,80.10
2022-10-17T04:25:37.474Z,78.56
2022-10-17T04:26:09.407Z,77.98
2022-10-17T04:26:41.306Z,79.78
2022-10-17T04:27:13.342Z,86.65
2022-10-17T04:27:45.872Z,81.83
2022-10-17T04:28:18.201Z,81.39
2022-10-17T04:28:51.045Z,79.65
2022-10-17T04:29:24.050Z,80.33
2022-10-17T04:29:56.261Z,79.39
2022-10-17T04:30:28.969Z,78.67
2022-10-17T04:31:07.314Z,78.43
2022-10-17T04:31:40.389Z,78.25
2022-10-17T04:32:12.671Z,78.24
2022-10-17T04:32:44.799Z,78.08
2022-10-17T04:33:17.300Z,78.86
2022-10-17T04:33:50.584Z,78.88
2022-10-17T04:34:22.475Z,79.20
2022-10-17T04:34:54.335Z,79.05
2022-10-17T04:35:26.559Z,78.55
2022-10-17T04:36:14.138Z,77.90
2022-10-17T04:36:47.190Z,77.95
2022-10-17T04:37:19.284Z,78.57
2022-10-17T04:37:51.402Z,78.44
2022-10-17T04:38:27.725Z,77.94
2022-10-17T04:39:05.898Z,77.06
2022-10-17T04:39:37.876Z,77.09
2022-10-17T04:40:10.690Z,77.23
2022-10-17T04:40:42.817Z,77.03
2022-10-17T04:41:17.517Z,77.03
2022-10-17T04:41:49.467Z,77.45
2022-10-17T04:42:21.500Z,77.48
2022-10-17T04:42:53.614Z,77.41
2022-10-17T04:43:26.433Z,77.40
2022-10-17T04:43:58.313Z,77.20
2022-10-17T04:44:31.442Z,77.04
2022-10-17T04:45:04.379Z,77.28
2022-10-17T04:45:36.275Z,77.62
2022-10-17T04:46:11.022Z,77.61
2022-10-17T04:46:44.118Z,77.56
2022-10-17T04:47:15.986Z,77.46
2022-10-17T04:47:48.014Z,77.33
2022-10-17T04:48:20.306Z,77.10
2022-10-17T04:48:54.167Z,77.33
2022-10-17T04:49:27.071Z,77.32
2022-10-17T04:50:00.044Z,77.67
2022-10-17T04:50:31.922Z,77.84
2022-10-17T04:51:10.880Z,77.88
2022-10-17T04:51:43.374Z,78.38
2022-10-17T04:52:15.582Z,78.54
2022-10-17T04:52:47.483Z,78.54
2022-10-17T04:53:20.191Z,78.60
2022-10-17T04:53:52.440Z,78.22
2022-10-17T04:54:24.357Z,78.53
2022-10-17T04:54:57.090Z,78.30
2022-10-17T04:55:28.966Z,78.61
2022-10-17T04:56:01.745Z,78.69
2022-10-17T04:56:33.993Z,78.58
2022-10-17T04:57:05.897Z,78.49
2022-10-17T04:57:38.023Z,78.94
2022-10-17T04:58:10.611Z,78.93
2022-10-17T04:58:43.688Z,78.81
2022-10-17T04:59:15.929Z,78.84
2022-10-17T04:59:48.041Z,78.71
2022-10-17T05:00:20.416Z,78.51
2022-10-17T05:00:54.281Z,78.30
2022-10-17T05:01:26.943Z,78.51
2022-10-17T05:01:58.875Z,78.99
2022-10-17T05:02:31.043Z,85.88
2022-10-17T05:03:05.514Z,82.77
2022-10-17T05:03:37.890Z,80.48
2022-10-17T05:04:10.026Z,79.07
2022-10-17T05:04:42.363Z,78.70
2022-10-17T05:05:14.474Z,77.44
2022-10-17T05:05:48.185Z,77.08
2022-10-17T05:06:22.642Z,76.22
2022-10-17T05:06:56.614Z,77.02
2022-10-17T05:07:29.714Z,77.20
2022-10-17T05:08:02.065Z,77.35
2022-10-17T05:08:34.639Z,77.28
2022-10-17T05:09:06.792Z,77.21
2022-10-17T05:09:38.725Z,77.35
2022-10-17T05:10:11.031Z,77.82
2022-10-17T05:10:46.411Z,78.12
2022-10-17T05:11:21.242Z,78.29
2022-10-17T05:11:53.240Z,78.24
2022-10-17T05:12:25.787Z,78.02
2022-10-17T05:12:59.077Z,78.06
2022-10-17T05:13:31.751Z,77.80
2022-10-17T05:14:03.669Z,77.74
2022-10-17T05:14:35.938Z,78.27
2022-10-17T05:15:08.484Z,78.23
2022-10-17T05:15:40.739Z,78.49
2022-10-17T05:16:12.800Z,78.86
2022-10-17T05:16:44.853Z,79.03
2022-10-17T05:17:17.221Z,78.77
2022-10-17T05:17:49.323Z,78.45
2022-10-17T05:18:21.736Z,78.23
2022-10-17T05:18:55.710Z,78.47
2022-10-17T05:19:27.609Z,78.61
2022-10-17T05:19:59.569Z,78.41
2022-10-17T05:20:31.958Z,78.37
2022-10-17T05:21:05.005Z,78.93
2022-10-17T05:21:38.688Z,78.87
2022-10-17T05:22:10.872Z,78.66
2022-10-17T05:22:42.797Z,78.87
2022-10-17T05:23:15.095Z,78.60
2022-10-17T05:23:47.549Z,78.50
2022-10-17T05:24:19.745Z,78.51
2022-10-17T05:24:53.386Z,78.43
2022-10-17T05:25:25.228Z,78.33
2022-10-17T05:25:57.317Z,78.04
2022-10-17T05:26:29.547Z,77.74
2022-10-17T05:27:01.618Z,77.74
2022-10-17T05:27:33.691Z,77.51
2022-10-17T05:28:06.553Z,77.24
2022-10-17T05:28:38.527Z,77.35
2022-10-17T05:29:11.063Z,77.19
2022-10-17T05:29:43.218Z,77.27
2022-10-17T05:30:18.210Z,77.44
2022-10-17T05:30:50.434Z,77.46
2022-10-17T05:31:22.540Z,77.31
2022-10-17T05:31:54.720Z,77.51
2022-10-17T05:32:26.907Z,77.86
2022-10-17T05:32:59.038Z,78.03
2022-10-17T05:33:31.714Z,78.03
2022-10-17T05:34:04.388Z,78.19
2022-10-17T05:34:36.835Z,78.29
2022-10-17T05:35:08.811Z,78.00
2022-10-17T05:35:40.992Z,77.89
2022-10-17T05:36:12.906Z,77.68
2022-10-17T05:36:45.076Z,77.13
2022-10-17T05:37:18.796Z,77.16
2022-10-17T05:37:50.994Z,77.67
2022-10-17T05:38:23.609Z,78.12
2022-10-17T05:38:55.550Z,78.66
2022-10-17T05:39:27.552Z,78.82
2022-10-17T05:40:01.231Z,78.91
2022-10-17T05:40:34.743Z,78.79
2022-10-17T05:41:07.918Z,78.71
2022-10-17T05:41:39.810Z,78.40
2022-10-17T05:42:11.815Z,78.27
2022-10-17T05:42:48.066Z,77.94
2022-10-17T05:43:20.214Z,77.80
2022-10-17T05:43:52.452Z,77.90
2022-10-17T05:44:25.134Z,80.63
2022-10-17T05:44:57.649Z,79.34
2022-10-17T05:45:30.915Z,78.73
2022-10-17T05:46:06.757Z,78.98
2022-10-17T05:46:39.301Z,78.26
2022-10-17T05:47:11.429Z,78.54
2022-10-17T05:47:43.684Z,78.20
2022-10-17T05:48:15.711Z,78.31
2022-10-17T05:48:47.616Z,78.38
2022-10-17T05:49:32.585Z,78.03
2022-10-17T05:50:12.525Z,77.88
2022-10-17T05:50:46.443Z,78.01
2022-10-17T05:51:18.948Z,78.08
2022-10-17T05:51:51.720Z,77.78
2022-10-17T05:52:23.668Z,77.58
2022-10-17T05:52:56.170Z,77.20
2022-10-17T05:53:32.123Z,76.18
2022-10-17T05:54:07.004Z,74.26
2022-10-17T05:54:40.252Z,71.22
2022-10-17T05:55:12.240Z,69.64
2022-10-17T05:55:44.440Z,66.86
2022-10-17T05:56:16.267Z,65.33
2022-10-17T05:56:52.875Z,64.12
2022-10-17T05:57:26.599Z,61.76
2022-10-17T05:58:00.649Z,60.03
2022-10-17T05:58:52.320Z,58.77
2022-10-17T05:59:27.976Z,56.98
2022-10-17T06:00:00.941Z,55.59
2022-10-17T06:00:34.240Z,54.20
2022-10-17T06:01:09.382Z,53.44
2022-10-17T06:01:44.051Z,51.85
2022-10-17T06:02:16.061Z,50.77
2022-10-17T06:02:48.198Z,50.30
2022-10-17T06:03:20.447Z,49.34
2022-10-17T06:03:52.980Z,49.28
2022-10-17T06:04:27.764Z,49.31
2022-10-17T06:04:59.998Z,49.02
2022-10-17T06:05:35.606Z,47.87
2022-10-17T06:06:10.573Z,47.37
2022-10-17T06:06:43.473Z,46.29
2022-10-17T06:07:16.214Z,44.84
2022-10-17T06:07:50.152Z,44.27
2022-10-17T06:08:22.964Z,49.36
2022-10-17T06:08:55.440Z,45.33
2022-10-17T06:09:28.429Z,44.05
2022-10-17T06:10:01.319Z,43.22
2022-10-17T06:10:33.451Z,42.53
2022-10-17T06:11:09.170Z,42.87
2022-10-17T06:11:42.998Z,42.26
2022-10-17T06:12:16.137Z,43.32
2022-10-17T06:12:48.522Z,43.90
2022-10-17T06:13:20.469Z,43.80
2022-10-17T06:13:52.800Z,43.34
2022-10-17T06:14:25.119Z,42.43
2022-10-17T06:14:57.219Z,41.79
2022-10-17T06:15:29.061Z,41.21
2022-10-17T06:16:01.170Z,40.67
2022-10-17T06:16:33.684Z,40.38
2022-10-17T06:17:05.893Z,39.94
2022-10-17T06:17:37.766Z,39.78
2022-10-17T06:18:11.124Z,39.47
2022-10-17T06:18:43.300Z,39.22
2022-10-17T06:19:16.018Z,38.72
2022-10-17T06:19:47.915Z,38.97
2022-10-17T06:20:20.192Z,39.63
2022-10-17T06:20:53.138Z,39.72
2022-10-17T06:21:27.194Z,40.53
2022-10-17T06:21:59.392Z,40.61
2022-10-17T06:22:32.212Z,39.91
2022-10-17T06:23:06.487Z,39.76
2022-10-17T06:23:40.036Z,39.41
2022-10-17T06:24:12.211Z,39.27
2022-10-17T06:24:44.816Z,38.87
2022-10-17T06:25:17.116Z,38.52
2022-10-17T06:25:48.966Z,38.05
2022-10-17T06:26:21.081Z,38.63
2022-10-17T06:26:53.370Z,39.75
2022-10-17T06:27:25.695Z,39.65
2022-10-17T06:27:57.884Z,40.19
2022-10-17T06:28:30.086Z,39.92
2022-10-17T06:29:02.444Z,39.41
2022-10-17T06:29:34.759Z,40.14
2022-10-17T06:30:07.148Z,39.84
2022-10-17T06:30:40.584Z,40.33
2022-10-17T06:31:16.695Z,39.14
2022-10-17T06:31:48.592Z,37.90
2022-10-17T06:32:21.081Z,37.21
2022-10-17T06:32:53.724Z,37.48
2022-10-17T06:33:26.239Z,38.17
2022-10-17T06:33:58.214Z,38.61
2022-10-17T06:34:30.114Z,39.50
2022-10-17T06:35:02.093Z,40.47
2022-10-17T06:35:35.181Z,39.83
2022-10-17T06:36:08.566Z,39.30
2022-10-17T06:36:40.529Z,39.22
2022-10-17T06:37:12.845Z,38.99
2022-10-17T06:37:45.137Z,38.85
2022-10-17T06:38:16.994Z,38.81
2022-10-17T06:38:49.350Z,38.70
2022-10-17T06:39:21.884Z,38.95
2022-10-17T06:39:54.557Z,38.86
2022-10-17T06:40:26.811Z,39.65
2022-10-17T06:41:14.542Z,40.09
2022-10-17T06:41:46.389Z,41.26
2022-10-17T06:42:22.131Z,41.74
2022-10-17T06:42:54.289Z,42.07
2022-10-17T06:43:28.192Z,42.72
2022-10-17T06:44:00.760Z,42.70
2022-10-17T06:44:34.557Z,42.65
2022-10-17T06:45:12.180Z,42.55
2022-10-17T06:45:47.661Z,43.92
2022-10-17T06:46:20.068Z,43.35
2022-10-17T06:46:54.727Z,43.03
2022-10-17T06:47:27.102Z,42.29
2022-10-17T06:47:59.501Z,41.08
2022-10-17T06:48:33.098Z,42.00
2022-10-17T06:49:10.609Z,42.46
2022-10-17T06:49:42.826Z,44.07
2022-10-17T06:50:15.387Z,45.41
2022-10-17T06:50:47.566Z,44.58
2022-10-17T06:51:20.206Z,44.99
2022-10-17T06:51:52.308Z,44.09
2022-10-17T06:52:24.444Z,43.20
2022-10-17T06:52:58.080Z,43.39
2022-10-17T06:53:42.592Z,43.16
2022-10-17T06:54:14.839Z,43.42
2022-10-17T06:54:46.994Z,43.46
2022-10-17T06:55:22.606Z,43.67
2022-10-17T06:55:58.160Z,44.36
2022-10-17T06:56:30.478Z,45.25
2022-10-17T06:57:02.984Z,44.45
2022-10-17T06:57:34.967Z,45.37
2022-10-17T06:58:06.878Z,44.24
2022-10-17T06:58:40.114Z,43.73
2022-10-17T06:59:12.199Z,43.29
2022-10-17T06:59:44.645Z,44.00
2022-10-17T07:00:17.303Z,43.92
2022-10-17T07:00:50.408Z,44.23
2022-10-17T07:01:22.923Z,45.04
2022-10-17T07:01:55.470Z,44.79
2022-10-17T07:02:28.736Z,44.40
2022-10-17T07:03:01.851Z,43.03
2022-10-17T07:03:34.205Z,42.89
2022-10-17T07:04:06.146Z,44.22
2022-10-17T07:04:38.828Z,43.94
2022-10-17T07:05:11.096Z,43.46
2022-10-17T07:05:42.971Z,42.62
2022-10-17T07:06:14.854Z,42.40
2022-10-17T07:06:47.012Z,42.24
2022-10-17T07:07:19.715Z,42.93
2022-10-17T07:07:52.033Z,43.61
2022-10-17T07:08:24.314Z,43.51
2022-10-17T07:08:56.302Z,42.67
2022-10-17T07:09:28.360Z,42.19
2022-10-17T07:10:03.892Z,42.16
2022-10-17T07:10:38.562Z,42.66
2022-10-17T07:11:13.537Z,43.03
2022-10-17T07:11:45.507Z,42.47
2022-10-17T07:12:21.006Z,42.97
2022-10-17T07:12:52.818Z,43.21
2022-10-17T07:13:25.594Z,43.90
2022-10-17T07:13:57.451Z,44.09
2022-10-17T07:14:32.165Z,43.91
2022-10-17T07:15:05.364Z,43.93
2022-10-17T07:15:38.217Z,44.13
2022-10-17T07:16:11.224Z,43.84
2022-10-17T07:16:43.254Z,43.07
2022-10-17T07:17:16.271Z,43.55
2022-10-17T07:17:50.827Z,43.55
2022-10-17T07:18:22.981Z,44.10
2022-10-17T07:18:55.466Z,44.13
2022-10-17T07:19:27.678Z,43.91
2022-10-17T07:19:59.536Z,44.13
2022-10-17T07:20:32.322Z,44.82
2022-10-17T07:21:05.481Z,44.84
2022-10-17T07:21:39.218Z,44.56
2022-10-17T07:22:12.958Z,44.65
2022-10-17T07:22:46.118Z,43.96
2022-10-17T07:23:17.956Z,43.61
2022-10-17T07:23:50.119Z,43.34
2022-10-17T07:24:22.067Z,42.95
2022-10-17T07:24:54.428Z,43.07
2022-10-17T07:25:28.489Z,43.39
2022-10-17T07:26:02.333Z,43.24
2022-10-17T07:26:34.764Z,43.90
2022-10-17T07:27:06.726Z,44.18
2022-10-17T07:27:38.646Z,44.19
2022-10-17T07:28:10.542Z,44.21
2022-10-17T07:28:45.092Z,44.48
2022-10-17T07:29:22.110Z,44.44
2022-10-17T07:29:54.050Z,44.08
2022-10-17T07:30:26.051Z,43.67
2022-10-17T07:31:13.145Z,43.45
2022-10-17T07:31:48.699Z,43.03
2022-10-17T07:32:20.663Z,41.65